Time;durP1;ratioP1;P1;durP2;ratioP2;P2;SDS_P1;SDS_P2;PMS_P1;PMS_P2;Temp;Humidity;BMP_temperature;BMP_pressure;BME280_temperature;BME280_humidity;BME280_pressure;Samples;Min_cycle;Max_cycle;Signal;HPM_P1;HPM_P2
2023/07/07 00:00:32;;;;;;;10.70;5.63;;;;;;;15.02;100.00;101840.16;5014720;28;20038;-77
2023/07/07 00:02:58;;;;;;;16.42;5.07;;;;;;;14.98;100.00;101844.31;5014229;28;20034;-77
2023/07/07 00:05:23;;;;;;;9.68;4.78;;;;;;;14.97;100.00;101841.75;5013992;28;20029;-76
2023/07/07 00:07:49;;;;;;;23.75;4.88;;;;;;;14.89;100.00;101845.41;5016705;28;20022;-77
2023/07/07 00:10:15;;;;;;;16.23;5.32;;;;;;;14.87;100.00;101847.44;5018638;28;20044;-77
2023/07/07 00:12:40;;;;;;;10.68;4.32;;;;;;;14.80;100.00;101847.38;5019065;28;20029;-77
2023/07/07 00:15:06;;;;;;;15.20;4.50;;;;;;;14.80;100.00;101846.53;5018955;28;20061;-77
2023/07/07 00:17:32;;;;;;;12.20;3.95;;;;;;;14.77;100.00;101849.59;5019414;28;20038;-77
2023/07/07 00:20:02;;;;;;;10.27;3.97;;;;;;;14.76;100.00;101845.19;5018482;28;20032;-76
2023/07/07 00:22:31;;;;;;;12.35;4.43;;;;;;;14.76;100.00;101846.03;5019793;28;20029;-77
2023/07/07 00:24:56;;;;;;;18.80;4.03;;;;;;;14.75;100.00;101844.38;5021522;28;20025;-77
2023/07/07 00:27:22;;;;;;;13.95;4.00;;;;;;;14.76;100.00;101842.50;5019908;28;20160;-77
2023/07/07 00:29:47;;;;;;;9.60;4.25;;;;;;;14.75;100.00;101844.38;5018285;28;20091;-77
2023/07/07 00:32:13;;;;;;;9.65;4.05;;;;;;;14.74;100.00;101847.25;5016027;28;20049;-77
2023/07/07 00:34:38;;;;;;;10.38;3.90;;;;;;;14.68;100.00;101841.53;5017614;28;20526;-77
2023/07/07 00:37:04;;;;;;;11.75;3.80;;;;;;;14.65;100.00;101841.91;5020330;28;20034;-76
2023/07/07 00:39:29;;;;;;;12.50;3.90;;;;;;;14.59;100.00;101839.94;5018571;28;20108;-77
2023/07/07 00:41:54;;;;;;;6.43;3.22;;;;;;;14.52;100.00;101838.13;5018473;28;20322;-77
2023/07/07 00:44:20;;;;;;;8.98;3.47;;;;;;;14.48;100.00;101833.09;4998026;28;20056;-77
2023/07/07 00:46:45;;;;;;;9.93;3.53;;;;;;;14.46;100.00;101839.72;5012555;28;20066;-77
2023/07/07 00:49:19;;;;;;;12.30;3.60;;;;;;;14.45;100.00;101832.59;5012462;28;20132;-77
2023/07/07 00:51:48;;;;;;;9.35;3.60;;;;;;;14.44;100.00;101828.22;4994590;28;20053;-77
2023/07/07 00:54:17;;;;;;;11.07;3.50;;;;;;;14.44;100.00;101831.75;5012304;28;20481;-76
2023/07/07 00:56:50;;;;;;;10.05;3.55;;;;;;;14.47;100.00;101830.53;4994295;28;20032;-78
2023/07/07 00:59:22;;;;;;;8.88;3.45;;;;;;;14.48;100.00;101822.25;4994561;28;20026;-76
2023/07/07 01:01:51;;;;;;;7.95;3.45;;;;;;;14.43;100.00;101829.25;4994730;28;20029;-77
2023/07/07 01:04:17;;;;;;;6.90;3.60;;;;;;;14.41;100.00;101826.72;5016254;28;20064;-77
2023/07/07 01:06:49;;;;;;;7.50;3.38;;;;;;;14.37;100.00;101829.97;5018239;28;20025;-77
2023/07/07 01:09:14;;;;;;;9.40;3.40;;;;;;;14.33;100.00;101825.94;5036550;28;20376;-77
2023/07/07 01:11:40;;;;;;;9.38;3.30;;;;;;;14.32;100.00;101822.38;5022867;28;20093;-77
2023/07/07 01:14:09;;;;;;;7.10;3.00;;;;;;;14.32;100.00;101824.25;5010346;28;20038;-77
2023/07/07 01:16:50;;;;;;;10.90;2.55;;;;;;;14.33;100.00;101823.25;5014654;28;20037;-76
2023/07/07 01:19:18;;;;;;;6.13;3.30;;;;;;;14.31;100.00;101819.88;5015870;28;20049;-76
2023/07/07 01:21:55;;;;;;;11.77;3.60;;;;;;;14.28;100.00;101821.91;5016546;28;20034;-76
2023/07/07 01:24:35;;;;;;;5.93;2.80;;;;;;;14.26;100.00;101818.53;4999223;28;20030;-77
2023/07/07 01:27:19;;;;;;;5.60;2.75;;;;;;;14.25;100.00;101826.84;5002964;28;20030;-77
2023/07/07 01:30:02;;;;;;;7.55;3.08;;;;;;;14.20;100.00;101821.16;5019013;28;20026;-77
2023/07/07 01:32:31;;;;;;;8.82;3.47;;;;;;;14.17;100.00;101819.63;5005555;28;20030;-75
2023/07/07 01:34:59;;;;;;;8.38;2.95;;;;;;;14.13;100.00;101817.47;5007605;28;20037;-77
2023/07/07 01:37:24;;;;;;;5.45;2.80;;;;;;;14.07;100.00;101819.03;5024268;28;20026;-76
2023/07/07 01:39:51;;;;;;;6.68;2.70;;;;;;;14.02;100.00;101825.00;5022726;28;20125;-77
2023/07/07 01:42:22;;;;;;;7.22;2.88;;;;;;;13.98;100.00;101825.53;5000774;28;20342;-77
2023/07/07 01:45:08;;;;;;;5.57;3.10;;;;;;;13.93;100.00;101822.50;5017167;28;20115;-77
2023/07/07 01:47:35;;;;;;;6.68;3.00;;;;;;;13.92;100.00;101820.84;4998727;28;20504;-77
2023/07/07 01:50:08;;;;;;;8.13;2.97;;;;;;;13.93;100.00;101819.81;5016894;28;20058;-77
2023/07/07 01:52:34;;;;;;;6.10;2.92;;;;;;;13.93;100.00;101822.50;4998896;28;20085;-76
2023/07/07 01:55:04;;;;;;;5.82;3.15;;;;;;;13.88;100.00;101817.66;5015600;28;20564;-76
2023/07/07 01:57:30;;;;;;;7.93;3.30;;;;;;;13.89;100.00;101832.03;5015677;28;20042;-77
2023/07/07 01:59:56;;;;;;;8.57;2.80;;;;;;;13.89;100.00;101832.03;4998603;28;20032;-77
2023/07/07 02:02:22;;;;;;;5.97;2.95;;;;;;;13.87;100.00;101831.38;4997691;28;20105;-76
2023/07/07 02:04:47;;;;;;;4.43;2.80;;;;;;;13.84;100.00;101822.56;5014796;28;20044;-77
2023/07/07 02:07:13;;;;;;;6.00;3.00;;;;;;;13.82;100.00;101827.34;5009170;28;20026;-77
2023/07/07 02:09:39;;;;;;;8.73;3.00;;;;;;;13.77;100.00;101828.88;5017084;28;20053;-77
2023/07/07 02:12:05;;;;;;;4.38;2.90;;;;;;;13.76;100.00;101824.50;5015139;28;20191;-77
2023/07/07 02:14:30;;;;;;;7.90;2.83;;;;;;;13.75;100.00;101829.06;5015201;28;20037;-77
2023/07/07 02:16:55;;;;;;;4.15;2.70;;;;;;;13.74;100.00;101818.41;5006439;28;20049;-77
2023/07/07 02:19:21;;;;;;;4.05;3.13;;;;;;;13.76;100.00;101817.22;5004393;28;20022;-77
2023/07/07 02:21:46;;;;;;;5.63;3.25;;;;;;;13.77;100.00;101826.19;4997742;28;20022;-77
2023/07/07 02:24:11;;;;;;;9.35;3.25;;;;;;;13.80;100.00;101828.56;5015214;28;20041;-77
2023/07/07 02:26:37;;;;;;;8.48;2.90;;;;;;;13.79;100.00;101824.97;5015335;28;20030;-78
2023/07/07 02:29:02;;;;;;;5.07;3.10;;;;;;;13.78;100.00;101826.00;5014674;28;20117;-77
2023/07/07 02:31:28;;;;;;;5.38;2.97;;;;;;;13.78;100.00;101826.00;5013582;28;20037;-77
2023/07/07 02:33:53;;;;;;;3.72;2.58;;;;;;;13.78;100.00;101820.59;5014476;28;20038;-77
2023/07/07 02:36:19;;;;;;;5.07;3.30;;;;;;;13.79;100.00;101821.44;5013983;28;20026;-77
2023/07/07 02:38:45;;;;;;;4.60;2.80;;;;;;;13.80;100.00;101825.84;5014972;28;20454;-77
2023/07/07 02:41:10;;;;;;;5.80;2.90;;;;;;;13.77;100.00;101827.03;5015697;28;20022;-76
2023/07/07 02:43:36;;;;;;;5.97;3.00;;;;;;;13.76;100.00;101828.03;5015138;28;20018;-77
2023/07/07 02:46:02;;;;;;;6.70;3.67;;;;;;;13.76;100.00;101828.03;5015068;28;20040;-77
2023/07/07 02:48:27;;;;;;;8.35;3.53;;;;;;;13.78;100.00;101825.16;5014636;28;20025;-76
2023/07/07 02:50:54;;;;;;;4.47;2.97;;;;;;;13.77;100.00;101831.59;5015461;28;20044;-78
2023/07/07 02:53:20;;;;;;;6.15;3.05;;;;;;;13.76;100.00;101833.47;5016446;28;20033;-78
2023/07/07 02:55:45;;;;;;;6.10;3.60;;;;;;;13.74;100.00;101830.06;5015387;28;20041;-76
2023/07/07 02:58:11;;;;;;;6.80;4.00;;;;;;;13.71;100.00;101830.44;4997950;28;20046;-78
2023/07/07 03:00:37;;;;;;;9.05;3.50;;;;;;;13.65;100.00;101823.06;5019520;28;20094;-76
2023/07/07 03:03:02;;;;;;;8.52;4.10;;;;;;;13.63;100.00;101830.50;5025437;28;20030;-76
2023/07/07 03:05:28;;;;;;;8.93;3.72;;;;;;;13.61;100.00;101836.09;5025357;28;20029;-77
2023/07/07 03:07:53;;;;;;;6.50;3.30;;;;;;;13.60;100.00;101833.56;5017684;28;20049;-77
2023/07/07 03:10:18;;;;;;;6.40;3.50;;;;;;;13.56;100.00;101840.31;5014200;28;20030;-77
2023/07/07 03:12:44;;;;;;;6.53;3.97;;;;;;;13.57;100.00;101837.47;5013780;28;20022;-77
2023/07/07 03:15:09;;;;;;;7.43;3.67;;;;;;;13.57;100.00;101844.72;5014366;28;20044;-77
2023/07/07 03:17:35;;;;;;;5.75;4.00;;;;;;;13.56;100.00;101843.03;5014162;28;20372;-77
2023/07/07 03:20:00;;;;;;;7.90;4.00;;;;;;;13.51;100.00;101840.88;5013249;28;20412;-77
2023/07/07 03:22:26;;;;;;;9.77;3.80;;;;;;;13.53;100.00;101837.97;5014237;28;20038;-77
2023/07/07 03:24:51;;;;;;;8.50;3.70;;;;;;;13.55;100.00;101842.19;5012841;28;20033;-77
2023/07/07 03:27:17;;;;;;;11.15;4.20;;;;;;;13.56;100.00;101838.50;5013884;28;20041;-77
2023/07/07 03:29:42;;;;;;;9.98;3.40;;;;;;;13.58;100.00;101844.53;5006590;28;20030;-77
2023/07/07 03:32:08;;;;;;;7.78;4.00;;;;;;;13.60;100.00;101844.38;5019175;28;20032;-77
2023/07/07 03:34:36;;;;;;;6.35;3.92;;;;;;;13.59;100.00;101845.41;5011925;28;20038;-77
2023/07/07 03:37:02;;;;;;;8.88;4.15;;;;;;;13.58;100.00;101841.84;5028613;28;20064;-77
2023/07/07 03:39:27;;;;;;;6.55;4.40;;;;;;;13.58;100.00;101849.94;5025431;28;20058;-77
2023/07/07 03:41:53;;;;;;;10.75;4.50;;;;;;;13.57;100.00;101850.16;5018777;28;20057;-77
2023/07/07 03:44:18;;;;;;;7.00;4.10;;;;;;;13.58;100.00;101844.53;5017194;28;20030;-77
2023/07/07 03:46:43;;;;;;;11.93;4.32;;;;;;;13.61;100.00;101851.47;4997891;28;20034;-77
2023/07/07 03:49:09;;;;;;;6.80;4.40;;;;;;;13.59;100.00;101840.00;5016255;28;20088;-77
2023/07/07 03:51:36;;;;;;;9.30;4.68;;;;;;;13.60;100.00;101844.38;5015777;28;20040;-78
2023/07/07 03:54:02;;;;;;;8.65;4.63;;;;;;;13.61;100.00;101837.94;4995825;28;20155;-77
2023/07/07 03:56:27;;;;;;;7.65;4.13;;;;;;;13.60;100.00;101842.50;5013663;28;20033;-77
2023/07/07 03:58:53;;;;;;;16.25;5.28;;;;;;;13.65;100.00;101844.69;5010423;28;20067;-76
2023/07/07 04:01:18;;;;;;;8.40;4.90;;;;;;;13.66;100.00;101849.06;5009050;28;20030;-77
2023/07/07 04:03:47;;;;;;;9.93;4.80;;;;;;;13.69;100.00;101848.75;5012640;28;20038;-77
2023/07/07 04:06:15;;;;;;;8.82;4.40;;;;;;;13.74;100.00;101859.00;5000429;28;20034;-77
2023/07/07 04:08:40;;;;;;;8.55;4.53;;;;;;;13.75;100.00;101858.00;5013006;28;20123;-77
2023/07/07 04:11:08;;;;;;;7.93;4.78;;;;;;;13.78;100.00;101858.47;4988348;28;20117;-78
2023/07/07 04:13:37;;;;;;;6.18;4.40;;;;;;;13.84;100.00;101852.34;4994897;28;20038;-78
2023/07/07 04:16:29;;;;;;;10.27;4.50;;;;;;;13.91;100.00;101857.06;5000768;28;20537;-77
2023/07/07 04:18:55;;;;;;;13.43;5.63;;;;;;;13.94;100.00;101862.09;5007196;28;20052;-78
2023/07/07 04:21:26;;;;;;;14.10;5.82;;;;;;;13.98;100.00;101852.59;5020170;28;20041;-78
2023/07/07 04:23:53;;;;;;;11.73;5.00;;;;;;;14.07;100.00;101850.69;5017476;28;20026;-77
2023/07/07 04:26:20;;;;;;;9.63;5.50;;;;;;;14.14;100.00;101852.50;5009521;28;20524;-77
2023/07/07 04:28:45;;;;;;;10.57;5.90;;;;;;;14.20;100.00;101846.34;5021394;28;20048;-76
2023/07/07 04:31:12;;;;;;;8.05;5.63;;;;;;;14.32;100.00;101843.19;5004003;28;20157;-76
2023/07/07 04:33:39;;;;;;;8.57;6.07;;;;;;;14.38;100.00;101854.16;5016991;28;20083;-76
2023/07/07 04:36:07;;;;;;;16.45;5.60;;;;;;;14.47;100.00;101852.22;5010200;28;20026;-78
2023/07/07 04:38:32;;;;;;;;;;;;;;;14.58;100.00;101851.78;5005600;28;20026;-76
2023/07/07 04:41:06;;;;;;;8.65;5.30;;;;;;;14.66;100.00;101840.88;5004501;28;19963;-77
2023/07/07 04:43:33;;;;;;;9.48;4.93;;;;;;;14.78;100.00;101840.44;4998878;28;20040;-78
2023/07/07 04:45:59;;;;;;;8.93;5.63;;;;;;;14.87;100.00;101842.03;5007620;28;20030;-77
2023/07/07 04:48:25;;;;;;;13.27;5.47;;;;;;;14.98;100.00;101833.47;4985186;28;20014;-79
2023/07/07 04:50:55;;;;;;;13.30;4.93;;;;;;;15.09;100.00;101834.84;4997726;28;20022;-76
2023/07/07 04:53:21;;;;;;;9.15;4.50;;;;;;;15.18;100.00;101827.47;4999864;28;20037;-77
2023/07/07 04:55:46;;;;;;;8.65;4.30;;;;;;;15.28;100.00;101836.16;4984799;28;20030;-77
2023/07/07 04:58:11;;;;;;;10.73;5.30;;;;;;;15.31;100.00;101835.75;5002387;28;20043;-76
2023/07/07 05:00:42;;;;;;;12.70;5.28;;;;;;;15.34;100.00;101830.78;5000775;28;20018;-78
2023/07/07 05:03:07;;;;;;;8.73;4.80;;;;;;;15.49;100.00;101829.94;5002217;28;20064;-79
2023/07/07 05:05:35;;;;;;;15.60;4.53;;;;;;;15.56;100.00;101830.84;5005401;28;20060;-76
2023/07/07 05:08:01;;;;;;;14.73;4.95;;;;;;;15.66;100.00;101834.09;4991307;28;20026;-77
2023/07/07 05:10:26;;;;;;;7.80;4.43;;;;;;;15.66;100.00;101836.81;5001524;28;20037;-76
2023/07/07 05:12:52;;;;;;;7.43;4.22;;;;;;;15.63;100.00;101830.94;5006324;28;20097;-77
2023/07/07 05:15:17;;;;;;;8.93;4.30;;;;;;;15.74;100.00;101828.56;5009193;28;20022;-77
2023/07/07 05:17:42;;;;;;;7.90;4.30;;;;;;;15.83;100.00;101832.03;5001717;28;20161;-77
2023/07/07 05:20:10;;;;;;;8.95;4.47;;;;;;;15.94;100.00;101836.94;5010425;28;20034;-77
2023/07/07 05:22:36;;;;;;;;;;;;;;;16.07;100.00;101843.56;5007302;28;20030;-77
2023/07/07 05:25:01;;;;;;;11.73;4.07;;;;;;;16.12;100.00;101839.22;5003765;28;19914;-76
2023/07/07 05:27:26;;;;;;;8.68;3.78;;;;;;;16.22;100.00;101839.72;5010737;28;20075;-78
2023/07/07 05:29:52;;;;;;;6.07;3.50;;;;;;;16.29;100.00;101842.50;5013948;28;20058;-77
2023/07/07 05:32:17;;;;;;;7.97;3.72;;;;;;;16.37;100.00;101839.63;5007429;28;20568;-77
2023/07/07 05:34:43;;;;;;;9.13;3.60;;;;;;;16.51;100.00;101837.03;5012250;28;20492;-76
2023/07/07 05:37:08;;;;;;;4.97;3.40;;;;;;;16.62;100.00;101842.78;5012298;28;20117;-77
2023/07/07 05:39:34;;;;;;;6.47;3.20;;;;;;;16.72;100.00;101841.56;5011802;28;20030;-77
2023/07/07 05:41:59;;;;;;;6.10;3.30;;;;;;;16.81;100.00;101833.09;5012961;28;20022;-77
2023/07/07 05:44:25;;;;;;;7.97;3.70;;;;;;;16.93;100.00;101843.41;5015235;28;20030;-77
2023/07/07 05:46:50;;;;;;;6.47;3.20;;;;;;;17.06;100.00;101846.22;5012374;28;20033;-76
2023/07/07 05:49:15;;;;;;;9.43;3.20;;;;;;;17.18;100.00;101836.47;5011100;28;20392;-77
2023/07/07 05:51:41;;;;;;;6.10;3.10;;;;;;;17.36;100.00;101843.25;5016027;28;20065;-76
2023/07/07 05:54:08;;;;;;;6.35;3.00;;;;;;;17.50;100.00;101850.41;5020918;28;20033;-77
2023/07/07 05:56:34;;;;;;;10.82;2.83;;;;;;;17.58;100.00;101846.69;5019477;28;20069;-77
2023/07/07 05:58:59;;;;;;;6.28;2.50;;;;;;;17.62;100.00;101837.91;5019462;28;20053;-78
2023/07/07 06:01:25;;;;;;;7.28;2.80;;;;;;;17.74;100.00;101832.69;5024613;28;20473;-77
2023/07/07 06:03:50;;;;;;;4.93;2.50;;;;;;;17.86;100.00;101835.72;5015672;28;20026;-77
2023/07/07 06:06:16;;;;;;;8.93;2.90;;;;;;;18.03;100.00;101828.81;4998321;28;20021;-77
2023/07/07 06:08:42;;;;;;;7.68;2.75;;;;;;;18.17;100.00;101830.50;5015654;28;20076;-77
2023/07/07 06:11:07;;;;;;;10.05;2.63;;;;;;;18.29;100.00;101830.72;5017656;28;20036;-75
2023/07/07 06:13:33;;;;;;;10.30;2.60;;;;;;;18.40;100.00;101829.25;5015268;28;20061;-77
2023/07/07 06:15:59;;;;;;;3.35;2.38;;;;;;;18.53;100.00;101828.41;5013832;28;20522;-76
2023/07/07 06:18:24;;;;;;;7.78;2.60;;;;;;;18.65;100.00;101837.63;5014228;28;20085;-77
2023/07/07 06:20:54;;;;;;;4.60;2.67;;;;;;;18.76;100.00;101838.91;5014919;28;20034;-77
2023/07/07 06:23:20;;;;;;;4.03;2.30;;;;;;;18.90;100.00;101835.09;5016671;28;20040;-78
2023/07/07 06:25:47;;;;;;;5.60;2.80;;;;;;;19.11;100.00;101844.06;5000049;28;20076;-76
2023/07/07 06:28:13;;;;;;;10.38;2.50;;;;;;;19.47;100.00;101844.38;5015264;28;20450;-76
2023/07/07 06:30:38;;;;;;;5.93;2.33;;;;;;;19.83;100.00;101842.97;5016450;28;20097;-78
2023/07/07 06:33:03;;;;;;;3.55;2.35;;;;;;;20.26;100.00;101836.78;5012580;28;20026;-77
2023/07/07 06:35:29;;;;;;;6.85;3.40;;;;;;;20.58;100.00;101836.75;5010935;28;20117;-77
2023/07/07 06:37:54;;;;;;;6.43;2.28;;;;;;;20.80;100.00;101845.38;5015127;28;20385;-77
2023/07/07 06:40:20;;;;;;;8.48;2.60;;;;;;;21.07;100.00;101839.66;5013108;28;20074;-77
2023/07/07 06:42:46;;;;;;;5.47;2.03;;;;;;;21.27;100.00;101845.69;5013633;28;20033;-78
2023/07/07 06:45:11;;;;;;;11.45;2.42;;;;;;;21.37;100.00;101850.66;5013818;28;20041;-76
2023/07/07 06:47:37;;;;;;;10.75;2.33;;;;;;;21.40;100.00;101851.06;5011807;28;20085;-77
2023/07/07 06:50:02;;;;;;;7.03;2.20;;;;;;;21.50;100.00;101850.50;5011866;28;20141;-78
2023/07/07 06:52:28;;;;;;;7.15;2.15;;;;;;;21.47;100.00;101851.81;5015046;28;20086;-77
2023/07/07 06:54:57;;;;;;;5.40;2.10;;;;;;;21.26;100.00;101855.81;5021750;28;20412;-77
2023/07/07 06:57:23;;;;;;;4.90;2.17;;;;;;;21.29;100.00;101850.97;5019694;28;20109;-77
2023/07/07 06:59:48;;;;;;;3.67;2.20;;;;;;;21.42;99.87;101853.56;5020405;28;20080;-77
2023/07/07 07:02:13;;;;;;;4.63;1.83;;;;;;;21.75;100.00;101852.28;5020534;28;20030;-77
2023/07/07 07:04:39;;;;;;;6.28;2.53;;;;;;;22.19;95.89;101850.22;5010507;28;20101;-77
2023/07/07 07:07:06;;;;;;;7.10;2.00;;;;;;;22.72;94.06;101849.31;5019625;28;20026;-77
2023/07/07 07:09:31;;;;;;;3.55;1.92;;;;;;;23.12;89.63;101857.69;5003143;28;20037;-77
2023/07/07 07:11:57;;;;;;;6.50;1.73;;;;;;;23.79;87.03;101859.88;5018960;28;20026;-77
2023/07/07 07:14:23;;;;;;;7.80;2.28;;;;;;;24.04;84.75;101855.94;5020832;28;20041;-77
2023/07/07 07:16:48;;;;;;;5.03;2.50;;;;;;;24.61;81.37;101857.75;5004685;28;20034;-76
2023/07/07 07:19:13;;;;;;;6.60;1.85;;;;;;;25.08;77.48;101865.59;5023571;28;20436;-76
2023/07/07 07:21:39;;;;;;;4.55;2.13;;;;;;;25.76;77.77;101857.94;5024343;28;20084;-77
2023/07/07 07:24:04;;;;;;;6.25;1.83;;;;;;;26.20;70.92;101866.13;5024389;28;20290;-76
2023/07/07 07:26:30;;;;;;;5.63;1.95;;;;;;;26.38;73.21;101862.94;5023442;28;20022;-76
2023/07/07 07:28:56;;;;;;;7.75;2.08;;;;;;;26.05;69.34;101862.13;5020752;28;20029;-77
2023/07/07 07:31:21;;;;;;;10.07;2.40;;;;;;;26.93;70.29;101869.19;5016939;28;20030;-76
2023/07/07 07:33:51;;;;;;;3.20;2.10;;;;;;;26.81;67.82;101868.56;5015788;28;20362;-77
2023/07/07 07:36:17;;;;;;;6.20;2.47;;;;;;;27.05;66.97;101867.06;5016387;28;20030;-77
2023/07/07 07:38:42;;;;;;;7.30;2.63;;;;;;;27.44;65.09;101865.88;5017421;28;20037;-77
2023/07/07 07:41:07;;;;;;;4.43;2.10;;;;;;;27.74;63.70;101868.72;5016084;28;20112;-76
2023/07/07 07:43:33;;;;;;;7.57;2.50;;;;;;;27.84;59.89;101869.91;5016363;28;20381;-75
2023/07/07 07:45:58;;;;;;;8.13;2.63;;;;;;;27.41;60.89;101872.78;5016021;28;20033;-77
2023/07/07 07:48:24;;;;;;;5.30;2.17;;;;;;;27.98;61.41;101876.56;5016086;28;20053;-76
2023/07/07 07:50:49;;;;;;;6.80;2.08;;;;;;;27.82;59.59;101878.47;5016698;28;20080;-77
2023/07/07 07:53:15;;;;;;;4.43;2.08;;;;;;;27.24;60.70;101877.69;5015824;28;20037;-77
2023/07/07 07:55:40;;;;;;;6.90;2.60;;;;;;;26.79;61.95;101873.53;5018679;28;20088;-78
2023/07/07 07:58:05;;;;;;;9.00;2.90;;;;;;;26.39;61.24;101872.09;5017054;28;20054;-77
2023/07/07 08:00:31;;;;;;;8.32;2.33;;;;;;;26.82;63.26;101871.06;5013620;28;20030;-76
2023/07/07 08:02:56;;;;;;;6.80;2.65;;;;;;;26.76;60.46;101863.00;5016108;28;20038;-76
2023/07/07 08:05:21;;;;;;;7.07;2.38;;;;;;;27.58;59.48;101878.91;5017482;28;20079;-79
2023/07/07 08:07:47;;;;;;;9.05;2.50;;;;;;;26.91;56.38;101882.44;5016070;28;20058;-77
2023/07/07 08:10:12;;;;;;;5.70;2.58;;;;;;;27.04;57.49;101873.69;5014832;28;20029;-79
2023/07/07 08:12:37;;;;;;;5.00;2.58;;;;;;;27.12;57.04;101875.09;5015697;28;20026;-77
2023/07/07 08:15:03;;;;;;;8.02;2.53;;;;;;;27.14;56.44;101876.47;5017243;28;20068;-78
2023/07/07 08:17:29;;;;;;;10.02;2.45;;;;;;;27.68;54.80;101878.13;5015828;28;20053;-78
2023/07/07 08:19:56;;;;;;;8.63;2.60;;;;;;;27.45;54.53;101878.59;5018211;28;20480;-77
2023/07/07 08:22:24;;;;;;;3.45;2.42;;;;;;;27.58;54.97;101878.09;5018496;28;20040;-77
2023/07/07 08:24:52;;;;;;;5.18;2.30;;;;;;;27.35;53.41;101885.72;5018911;28;20457;-76
2023/07/07 08:27:18;;;;;;;5.45;2.60;;;;;;;27.46;53.95;101881.09;5018242;28;20026;-77
2023/07/07 08:29:44;;;;;;;8.10;2.67;;;;;;;27.44;55.63;101872.25;5018054;28;20029;-77
2023/07/07 08:32:12;;;;;;;6.40;2.17;;;;;;;27.34;53.19;101881.31;5018378;28;20112;-76
2023/07/07 08:34:38;;;;;;;6.10;2.28;;;;;;;27.03;53.79;101882.22;4998800;28;20029;-78
2023/07/07 08:37:03;;;;;;;4.90;2.40;;;;;;;27.27;52.96;101888.19;5019423;28;20025;-78
2023/07/07 08:39:29;;;;;;;5.40;2.65;;;;;;;27.10;53.27;101878.13;5016705;28;20034;-77
2023/07/07 08:42:02;;;;;;;5.93;2.22;;;;;;;26.99;53.86;101876.41;5014761;28;20127;-76
2023/07/07 08:44:30;;;;;;;7.95;2.58;;;;;;;27.42;52.52;101887.44;4989158;28;20036;-79
2023/07/07 08:47:18;;;;;;;9.13;2.33;;;;;;;27.62;50.59;101884.75;5005537;28;20490;-79
2023/07/07 08:49:49;;;;;;;3.85;2.70;;;;;;;27.59;50.24;101876.97;4994504;28;20021;-80
2023/07/07 08:52:24;;;;;;;7.93;2.58;;;;;;;27.48;48.99;101889.13;5005908;28;20045;-76
2023/07/07 08:54:49;;;;;;;6.22;2.40;;;;;;;27.78;47.67;101883.69;5018536;28;20076;-78
2023/07/07 08:57:15;;;;;;;4.85;2.30;;;;;;;27.92;48.47;101880.44;5019769;28;20393;-77
2023/07/07 09:00:08;;;;;;;9.70;2.83;;;;;;;28.24;45.94;101875.47;4996186;28;20041;-77
2023/07/07 09:02:50;;;;;;;5.10;2.60;;;;;;;27.68;46.11;101877.31;5016523;28;20034;-79
2023/07/07 09:05:50;;;;;;;6.82;2.17;;;;;;;28.72;46.89;101871.63;5014025;28;20030;-79
2023/07/07 09:08:27;;;;;;;4.78;2.47;;;;;;;28.06;44.85;101869.66;4998257;28;20040;-77
2023/07/07 09:11:18;;;;;;;7.47;2.67;;;;;;;27.56;47.80;101869.22;4996926;28;20030;-78
2023/07/07 09:13:44;;;;;;;8.02;2.92;;;;;;;28.52;46.19;101876.09;4998618;28;20030;-78
2023/07/07 09:16:23;;;;;;;6.90;2.65;;;;;;;28.48;44.85;101876.91;4995933;28;20035;-77
2023/07/07 09:18:54;;;;;;;8.30;3.00;;;;;;;28.76;42.81;101875.50;5009734;28;20033;-79
2023/07/07 09:21:44;;;;;;;6.35;2.67;;;;;;;28.39;43.70;101877.44;5017696;28;20030;-77
2023/07/07 09:24:26;;;;;;;7.72;2.60;;;;;;;29.30;44.18;101881.19;4998849;28;20065;-77
2023/07/07 09:26:56;;;;;;;6.25;2.50;;;;;;;29.28;41.96;101883.44;5018357;28;20487;-77
2023/07/07 09:29:25;;;;;;;7.00;2.75;;;;;;;29.73;42.80;101877.97;4999301;28;20536;-77
2023/07/07 09:31:51;;;;;;;7.55;2.70;;;;;;;30.00;41.14;101873.94;5015552;28;20034;-77
2023/07/07 09:34:16;;;;;;;4.13;2.67;;;;;;;29.87;40.90;101879.00;5016147;28;20028;-78
2023/07/07 09:37:04;;;;;;;6.03;2.50;;;;;;;30.30;39.92;101886.75;4999724;28;20093;-77
2023/07/07 09:39:49;;;;;;;7.90;3.03;;;;;;;30.24;39.55;101883.19;5000480;28;20033;-78
2023/07/07 09:42:38;;;;;;;7.82;2.67;;;;;;;29.71;39.73;101874.66;5018998;28;20030;-77
2023/07/07 09:45:22;;;;;;;6.70;3.17;;;;;;;29.91;39.71;101877.31;5019723;28;20067;-78
2023/07/07 09:47:50;;;;;;;7.15;3.05;;;;;;;30.12;39.66;101880.78;5019763;28;20038;-77
2023/07/07 09:50:21;;;;;;;7.28;2.65;;;;;;;30.14;40.12;101872.13;5020045;28;20361;-77
2023/07/07 09:52:54;;;;;;;6.57;2.72;;;;;;;30.86;40.35;101869.63;5014930;28;20034;-76
2023/07/07 09:55:22;;;;;;;7.57;2.70;;;;;;;30.75;39.86;101860.50;4997223;28;20105;-77
2023/07/07 09:58:02;;;;;;;7.85;2.60;;;;;;;30.20;38.27;101868.19;4990394;28;20046;-78
2023/07/07 10:00:29;;;;;;;8.80;3.30;;;;;;;29.71;39.35;101869.94;5019684;28;20453;-78
2023/07/07 10:02:54;;;;;;;6.22;2.85;;;;;;;29.45;39.05;101869.19;5001591;28;20018;-76
2023/07/07 10:05:29;;;;;;;8.33;2.87;;;;;;;29.83;41.37;101872.34;5001558;28;20033;-77
2023/07/07 10:07:56;;;;;;;6.38;3.00;;;;;;;30.35;39.62;101865.31;4997167;28;20044;-77
2023/07/07 10:10:21;;;;;;;8.57;2.70;;;;;;;30.56;40.56;101873.47;5017110;28;20436;-78
2023/07/07 10:12:47;;;;;;;6.47;2.97;;;;;;;30.70;39.63;101862.50;5019554;28;20056;-77
2023/07/07 10:15:34;;;;;;;6.55;2.80;;;;;;;30.76;37.80;101855.78;5019026;28;20036;-76
2023/07/07 10:18:12;;;;;;;6.50;2.90;;;;;;;30.71;37.58;101859.44;5001447;28;20077;-77
2023/07/07 10:20:39;;;;;;;9.55;3.00;;;;;;;32.03;37.93;101867.28;5005422;28;20405;-77
2023/07/07 10:23:09;;;;;;;8.90;3.42;;;;;;;31.49;37.36;101868.59;5002680;28;20077;-78
2023/07/07 10:25:34;;;;;;;5.50;3.22;;;;;;;30.26;37.45;101864.31;5005491;28;20448;-79
2023/07/07 10:28:01;;;;;;;10.67;3.60;;;;;;;30.60;38.38;101869.84;5021195;28;20022;-79
2023/07/07 10:30:26;;;;;;;5.82;2.92;;;;;;;30.19;38.83;101866.56;5000771;28;20022;-78
2023/07/07 10:32:52;;;;;;;9.00;3.50;;;;;;;30.58;38.65;101866.50;5019675;28;20026;-79
2023/07/07 10:35:19;;;;;;;15.87;3.10;;;;;;;30.37;38.43;101870.59;5016484;28;20068;-77
2023/07/07 10:37:45;;;;;;;8.18;3.45;;;;;;;31.07;39.08;101873.00;5015897;28;20026;-77
2023/07/07 10:40:21;;;;;;;6.30;3.15;;;;;;;31.42;39.60;101857.03;5015823;28;20540;-77
2023/07/07 10:42:50;;;;;;;13.27;3.33;;;;;;;31.97;37.70;101857.38;5018339;28;20026;-77
2023/07/07 10:45:15;;;;;;;7.18;3.03;;;;;;;32.73;36.18;101862.75;4998584;28;20652;-77
2023/07/07 10:47:40;;;;;;;9.87;3.00;;;;;;;33.27;35.75;101863.94;5019217;28;20033;-78
2023/07/07 10:50:13;;;;;;;8.73;3.30;;;;;;;32.66;35.21;101874.31;5020995;28;20029;-78
2023/07/07 10:52:50;;;;;;;8.73;3.33;;;;;;;33.04;33.93;101851.88;5020527;28;20101;-78
2023/07/07 10:55:27;;;;;;;7.30;3.10;;;;;;;33.08;36.03;101852.91;5021088;28;20485;-77
2023/07/07 10:57:55;;;;;;;;;;;;;;;32.60;34.99;101861.63;5005842;28;20060;-77
2023/07/07 11:00:39;;;;;;;5.65;3.15;;;;;;;31.49;36.72;101857.47;5023236;28;20014;-80
2023/07/07 11:03:27;;;;;;;9.05;3.45;;;;;;;32.12;36.46;101843.19;5000468;28;20133;-80
2023/07/07 11:06:08;;;;;;;10.07;3.40;;;;;;;30.96;37.75;101851.97;5019013;28;20108;-79
2023/07/07 11:08:49;;;;;;;7.95;3.13;;;;;;;30.82;38.66;101847.13;5014770;28;20062;-78
2023/07/07 11:11:25;;;;;;;9.65;3.00;;;;;;;31.61;37.35;101855.06;5016155;28;20025;-78
2023/07/07 11:14:24;;;;;;;10.73;3.28;;;;;;;32.57;35.59;101853.84;5017420;28;20026;-78
2023/07/07 11:16:57;;;;;;;6.55;3.15;;;;;;;32.68;34.20;101851.72;5019665;28;20113;-77
2023/07/07 11:19:32;;;;;;;8.27;3.50;;;;;;;32.88;34.60;101848.53;5006100;28;20041;-78
2023/07/07 11:22:40;;;;;;;11.07;3.72;;;;;;;32.11;34.27;101852.66;5018823;28;20160;-77
2023/07/07 11:25:19;;;;;;;7.25;3.33;;;;;;;31.43;35.98;101847.53;5018822;28;20099;-77